createdAt,value
2023-04-27T00:00:57.327Z,50.11
2023-04-27T00:01:57.330Z,46.57
2023-04-27T00:02:57.429Z,45.12
2023-04-27T00:03:57.362Z,47.70
2023-04-27T00:04:57.465Z,45.44
2023-04-27T00:05:57.328Z,43.99
2023-04-27T00:06:57.274Z,43.99
2023-04-27T00:07:57.258Z,48.98
2023-04-27T00:08:57.231Z,46.25
2023-04-27T00:09:57.257Z,44.63
2023-04-27T00:10:57.222Z,43.99
2023-04-27T00:11:57.203Z,44.31
2023-04-27T00:12:57.190Z,43.83
2023-04-27T00:13:57.215Z,44.31
2023-04-27T00:14:57.192Z,43.67
2023-04-27T00:15:57.207Z,45.44
2023-04-27T00:16:57.155Z,46.57
2023-04-27T00:17:57.174Z,46.41
2023-04-27T00:18:57.138Z,46.25
2023-04-27T00:19:57.149Z,45.44
2023-04-27T00:20:57.150Z,44.63
2023-04-27T00:21:57.129Z,45.44
2023-04-27T00:22:57.094Z,46.08
2023-04-27T00:23:57.093Z,44.79
2023-04-27T00:24:57.073Z,48.18
2023-04-27T00:25:57.076Z,45.60
2023-04-27T00:26:57.091Z,45.44
2023-04-27T00:27:57.049Z,47.05
2023-04-27T00:28:57.041Z,44.96
2023-04-27T00:29:57.043Z,44.63
2023-04-27T00:30:57.023Z,43.99
2023-04-27T00:31:57.036Z,46.73
2023-04-27T00:32:57.002Z,44.31
2023-04-27T00:33:56.991Z,43.67
2023-04-27T00:34:56.988Z,48.82
2023-04-27T00:35:56.967Z,42.86
2023-04-27T00:36:56.984Z,43.51
2023-04-27T00:37:56.951Z,43.99
2023-04-27T00:38:56.949Z,43.83
2023-04-27T00:39:56.923Z,43.18
2023-04-27T00:40:56.934Z,43.34
2023-04-27T00:41:56.933Z,45.92
2023-04-27T00:42:56.916Z,47.21
2023-04-27T00:43:56.884Z,46.25
2023-04-27T00:44:56.897Z,47.53
2023-04-27T00:45:56.930Z,52.37
2023-04-27T00:46:56.857Z,50.43
2023-04-27T00:47:56.967Z,47.37
2023-04-27T00:48:56.850Z,46.57
2023-04-27T00:49:56.860Z,45.60
2023-04-27T00:50:56.816Z,45.92
2023-04-27T00:51:56.813Z,47.21
2023-04-27T00:52:56.790Z,43.67
2023-04-27T00:53:56.854Z,43.83
2023-04-27T00:54:56.799Z,44.63
2023-04-27T00:55:56.783Z,43.18
2023-04-27T00:56:56.768Z,43.99
2023-04-27T00:57:56.765Z,43.67
2023-04-27T00:58:56.742Z,43.34
2023-04-27T00:59:56.751Z,43.83
2023-04-27T01:00:56.757Z,44.47
2023-04-27T01:01:56.747Z,45.44
2023-04-27T01:02:56.938Z,45.44
2023-04-27T01:03:56.966Z,45.92
2023-04-27T01:04:56.678Z,47.37
2023-04-27T01:05:56.680Z,47.53
2023-04-27T01:06:56.661Z,44.15
2023-04-27T01:07:56.663Z,43.83
2023-04-27T01:08:56.638Z,46.41
2023-04-27T01:09:56.622Z,44.79
2023-04-27T01:10:56.612Z,43.99
2023-04-27T01:11:56.610Z,45.28
2023-04-27T01:12:56.646Z,46.08
2023-04-27T01:13:56.594Z,45.60
2023-04-27T01:14:56.582Z,44.31
2023-04-27T01:15:56.567Z,44.15
2023-04-27T01:16:56.626Z,46.25
2023-04-27T01:17:56.589Z,47.05
2023-04-27T01:18:56.546Z,43.02
2023-04-27T01:19:56.527Z,44.47
2023-04-27T01:20:56.519Z,45.92
2023-04-27T01:21:56.520Z,47.53
2023-04-27T01:22:56.496Z,43.99
2023-04-27T01:23:56.504Z,43.51
2023-04-27T01:24:56.538Z,44.47
2023-04-27T01:25:56.476Z,43.34
2023-04-27T01:26:56.496Z,45.28
2023-04-27T01:27:56.489Z,46.89
2023-04-27T01:28:56.481Z,48.18
2023-04-27T01:29:56.441Z,44.79
2023-04-27T01:30:56.484Z,48.34
2023-04-27T01:31:56.411Z,44.63
2023-04-27T01:32:56.442Z,45.44
2023-04-27T01:33:56.445Z,43.99
2023-04-27T01:34:56.389Z,45.60
2023-04-27T01:35:56.391Z,47.53
2023-04-27T01:36:56.367Z,50.27
2023-04-27T01:37:56.384Z,47.21
2023-04-27T01:38:56.383Z,50.27
2023-04-27T01:39:56.346Z,50.60
2023-04-27T01:40:56.342Z,49.31
2023-04-27T01:41:58.387Z,48.34
2023-04-27T01:42:57.315Z,43.99
2023-04-27T01:43:56.325Z,46.73
2023-04-27T01:44:56.308Z,45.44
2023-04-27T01:45:56.333Z,44.96
2023-04-27T01:46:56.281Z,43.99
2023-04-27T01:47:56.330Z,49.15
2023-04-27T01:48:56.258Z,51.08
2023-04-27T01:49:56.264Z,46.73
2023-04-27T01:50:56.267Z,45.92
2023-04-27T01:51:56.225Z,48.02
2023-04-27T01:52:56.249Z,45.12
2023-04-27T01:53:56.209Z,47.86
2023-04-27T01:54:57.224Z,48.50
2023-04-27T01:55:56.204Z,46.89
2023-04-27T01:56:57.212Z,46.41
2023-04-27T01:57:56.174Z,45.60
2023-04-27T01:58:56.157Z,45.92
2023-04-27T01:59:56.266Z,46.41
2023-04-27T02:00:56.154Z,48.98
2023-04-27T02:01:56.222Z,45.44
2023-04-27T02:02:56.205Z,46.08
2023-04-27T02:03:56.278Z,43.99
2023-04-27T02:04:56.192Z,43.83
2023-04-27T02:05:56.100Z,46.08
2023-04-27T02:06:56.094Z,46.89
2023-04-27T02:07:56.080Z,43.51
2023-04-27T02:08:56.084Z,43.99
2023-04-27T02:09:56.071Z,45.92
2023-04-27T02:10:56.050Z,43.83
2023-04-27T02:11:56.046Z,44.15
2023-04-27T02:12:56.038Z,44.47
2023-04-27T02:13:56.045Z,44.31
2023-04-27T02:14:56.029Z,44.96
2023-04-27T02:15:56.054Z,51.72
2023-04-27T02:16:55.996Z,45.28
2023-04-27T02:17:56.101Z,44.96
2023-04-27T02:18:55.999Z,43.99
2023-04-27T02:19:55.981Z,43.99
2023-04-27T02:20:55.971Z,44.31
2023-04-27T02:21:55.970Z,46.08
2023-04-27T02:22:55.940Z,52.21
2023-04-27T02:23:55.922Z,46.89
2023-04-27T02:24:55.930Z,44.31
2023-04-27T02:25:55.903Z,51.08
2023-04-27T02:26:55.906Z,50.60
2023-04-27T02:27:55.904Z,44.15
2023-04-27T02:28:55.931Z,44.31
2023-04-27T02:29:55.893Z,43.99
2023-04-27T02:30:55.853Z,44.63
2023-04-27T02:31:55.942Z,45.92
2023-04-27T02:32:55.859Z,48.34
2023-04-27T02:33:55.842Z,47.53
2023-04-27T02:34:55.819Z,45.44
2023-04-27T02:35:55.822Z,44.63
2023-04-27T02:36:55.795Z,45.28
2023-04-27T02:37:55.791Z,50.76
2023-04-27T02:38:55.779Z,47.86
2023-04-27T02:39:55.775Z,48.34
2023-04-27T02:40:55.781Z,50.76
2023-04-27T02:41:55.767Z,49.31
2023-04-27T02:42:55.739Z,49.31
2023-04-27T02:43:55.746Z,45.92
2023-04-27T02:44:55.721Z,47.53
2023-04-27T02:45:55.704Z,48.34
2023-04-27T02:46:55.746Z,45.76
2023-04-27T02:47:55.781Z,50.11
2023-04-27T02:48:55.704Z,45.76
2023-04-27T02:49:55.698Z,46.08
2023-04-27T02:50:55.663Z,49.79
2023-04-27T02:51:55.631Z,48.66
2023-04-27T02:52:55.642Z,48.66
2023-04-27T02:53:55.643Z,52.53
2023-04-27T02:54:55.630Z,48.50
2023-04-27T02:55:55.604Z,50.76
2023-04-27T02:56:55.631Z,50.60
2023-04-27T02:57:55.585Z,55.11
2023-04-27T02:58:55.575Z,51.08
2023-04-27T02:59:55.627Z,50.76
2023-04-27T03:00:55.658Z,51.24
2023-04-27T03:01:55.568Z,53.01
2023-04-27T03:02:55.687Z,52.53
2023-04-27T03:03:55.694Z,49.63
2023-04-27T03:04:55.554Z,50.76
2023-04-27T03:05:55.534Z,51.24
2023-04-27T03:06:55.523Z,51.08
2023-04-27T03:08:27.412Z,52.37
2023-04-27T03:08:55.501Z,51.72
2023-04-27T03:09:55.482Z,50.76
2023-04-27T03:10:55.492Z,49.31
2023-04-27T03:11:55.464Z,54.95
2023-04-27T03:12:55.460Z,51.24
2023-04-27T03:13:55.446Z,48.50
2023-04-27T03:14:55.421Z,52.85
2023-04-27T03:15:55.434Z,52.53
2023-04-27T03:16:55.453Z,52.69
2023-04-27T03:17:55.481Z,52.37
2023-04-27T03:18:55.396Z,52.53
2023-04-27T03:19:55.461Z,53.66
2023-04-27T03:20:55.375Z,55.59
2023-04-27T03:21:55.366Z,53.66
2023-04-27T03:22:55.394Z,54.46
2023-04-27T03:23:55.363Z,53.82
2023-04-27T03:24:55.333Z,54.30
2023-04-27T03:25:55.360Z,51.40
2023-04-27T03:26:55.323Z,52.21
2023-04-27T03:27:55.316Z,53.82
2023-04-27T03:28:55.317Z,52.37
2023-04-27T03:29:55.286Z,53.17
2023-04-27T03:30:55.292Z,54.30
2023-04-27T03:31:55.315Z,55.43
2023-04-27T03:32:55.305Z,53.82
2023-04-27T03:33:55.270Z,52.85
2023-04-27T03:34:55.292Z,59.30
2023-04-27T03:35:55.242Z,53.33
2023-04-27T03:36:55.222Z,57.52
2023-04-27T03:37:55.220Z,56.24
2023-04-27T03:38:55.210Z,56.56
2023-04-27T03:39:55.219Z,53.33
2023-04-27T03:40:55.202Z,55.27
2023-04-27T03:41:55.228Z,53.17
2023-04-27T03:42:55.484Z,52.53
2023-04-27T03:43:55.231Z,54.30
2023-04-27T03:44:55.157Z,54.62
2023-04-27T03:45:55.232Z,54.14
2023-04-27T03:46:55.125Z,55.75
2023-04-27T03:47:55.167Z,54.95
2023-04-27T03:48:55.142Z,56.40
2023-04-27T03:49:55.111Z,55.75
2023-04-27T03:50:55.090Z,53.17
2023-04-27T03:51:55.141Z,52.53
2023-04-27T03:52:55.066Z,51.40
2023-04-27T03:53:55.080Z,53.98
2023-04-27T03:54:55.059Z,52.85
2023-04-27T03:55:55.041Z,53.17
2023-04-27T03:56:55.025Z,53.98
2023-04-27T03:57:55.048Z,56.72
2023-04-27T03:58:55.037Z,50.27
2023-04-27T03:59:55.028Z,51.72
2023-04-27T04:00:54.993Z,51.88
2023-04-27T04:01:55.040Z,53.98
2023-04-27T04:02:55.123Z,52.21
2023-04-27T04:03:55.132Z,56.24
2023-04-27T04:04:55.060Z,58.33
2023-04-27T04:05:54.985Z,57.20
2023-04-27T04:06:54.923Z,54.95
2023-04-27T04:07:54.918Z,56.24
2023-04-27T04:08:54.945Z,53.33
2023-04-27T04:09:54.908Z,55.75
2023-04-27T04:10:54.895Z,54.62
2023-04-27T04:11:54.882Z,54.46
2023-04-27T04:12:54.867Z,56.56
2023-04-27T04:13:54.887Z,56.40
2023-04-27T04:14:54.890Z,55.91
2023-04-27T04:15:54.867Z,56.88
2023-04-27T04:16:54.867Z,56.40
2023-04-27T04:17:54.863Z,54.95
2023-04-27T04:18:54.822Z,54.62
2023-04-27T04:19:54.825Z,57.52
2023-04-27T04:20:54.829Z,56.24
2023-04-27T04:21:54.820Z,53.66
2023-04-27T04:22:54.787Z,54.79
2023-04-27T04:23:54.776Z,56.56
2023-04-27T04:24:54.759Z,57.20
2023-04-27T04:25:54.765Z,56.40
2023-04-27T04:26:54.744Z,55.43
2023-04-27T04:27:54.736Z,56.56
2023-04-27T04:28:54.719Z,58.17
2023-04-27T04:29:54.716Z,57.69
2023-04-27T04:30:54.808Z,57.20
2023-04-27T04:31:54.691Z,56.88
2023-04-27T04:32:54.706Z,57.04
2023-04-27T04:33:54.687Z,56.24
2023-04-27T04:34:54.692Z,56.56
2023-04-27T04:35:54.686Z,57.69
2023-04-27T04:36:54.629Z,57.52
2023-04-27T04:37:54.635Z,58.65
2023-04-27T04:38:54.607Z,56.40
2023-04-27T04:39:54.649Z,57.04
2023-04-27T04:40:54.614Z,56.56
2023-04-27T04:41:54.592Z,56.88
2023-04-27T04:42:54.582Z,57.36
2023-04-27T04:43:54.575Z,57.52
2023-04-27T04:44:54.573Z,57.20
2023-04-27T04:45:54.548Z,56.88
2023-04-27T04:46:54.642Z,57.52
2023-04-27T04:47:54.645Z,56.56
2023-04-27T04:48:54.945Z,57.36
2023-04-27T04:49:55.522Z,56.56
2023-04-27T04:50:54.511Z,56.40
2023-04-27T04:51:54.520Z,56.40
2023-04-27T04:52:54.503Z,55.43
2023-04-27T04:53:54.478Z,55.11
2023-04-27T04:54:54.489Z,56.88
2023-04-27T04:55:54.444Z,57.20
2023-04-27T04:56:54.446Z,56.88
2023-04-27T04:57:54.441Z,56.24
2023-04-27T04:58:54.419Z,56.72
2023-04-27T04:59:54.444Z,58.97
2023-04-27T05:00:54.432Z,55.75
2023-04-27T05:01:54.407Z,57.85
2023-04-27T05:02:54.595Z,57.20
2023-04-27T05:03:54.481Z,57.85
2023-04-27T05:04:54.577Z,58.01
2023-04-27T05:05:54.384Z,56.56
2023-04-27T05:06:54.347Z,55.43
2023-04-27T05:07:54.353Z,57.69
2023-04-27T05:08:54.356Z,55.75
2023-04-27T05:09:54.321Z,54.62
2023-04-27T05:10:54.338Z,56.40
2023-04-27T05:11:54.305Z,54.14
2023-04-27T05:12:54.292Z,55.59
2023-04-27T05:13:54.289Z,56.07
2023-04-27T05:14:54.277Z,58.17
2023-04-27T05:15:54.306Z,56.07
2023-04-27T05:16:54.271Z,55.59
2023-04-27T05:17:54.376Z,57.04
2023-04-27T05:18:54.227Z,56.40
2023-04-27T05:19:54.246Z,56.56
2023-04-27T05:20:54.207Z,57.52
2023-04-27T05:21:54.242Z,57.69
2023-04-27T05:22:54.211Z,57.69
2023-04-27T05:23:54.179Z,56.56
2023-04-27T05:24:54.163Z,56.24
2023-04-27T05:25:54.154Z,56.88
2023-04-27T05:26:54.163Z,57.69
2023-04-27T05:27:54.153Z,58.17
2023-04-27T05:28:54.152Z,58.65
2023-04-27T05:29:54.131Z,58.81
2023-04-27T05:30:54.147Z,59.14
2023-04-27T05:31:54.174Z,58.49
2023-04-27T05:32:54.121Z,57.85
2023-04-27T05:33:54.075Z,60.10
2023-04-27T05:34:54.111Z,58.49
2023-04-27T05:35:54.058Z,59.30
2023-04-27T05:36:54.066Z,58.49
2023-04-27T05:37:54.046Z,57.52
2023-04-27T05:38:54.031Z,58.01
2023-04-27T05:39:54.047Z,58.65
2023-04-27T05:40:55.496Z,57.04
2023-04-27T05:41:55.007Z,57.04
2023-04-27T05:42:53.989Z,57.69
2023-04-27T05:43:53.990Z,57.69
2023-04-27T05:44:53.993Z,56.56
2023-04-27T05:45:54.035Z,56.56
2023-04-27T05:46:53.948Z,56.24
2023-04-27T05:47:54.023Z,56.72
2023-04-27T05:48:53.937Z,56.88
2023-04-27T05:49:53.926Z,56.88
2023-04-27T05:50:53.935Z,55.43
2023-04-27T05:51:53.920Z,53.82
2023-04-27T05:52:53.892Z,54.79
2023-04-27T05:53:53.887Z,54.95
2023-04-27T05:54:53.895Z,54.79
2023-04-27T05:55:53.879Z,53.33
2023-04-27T05:56:53.862Z,54.62
2023-04-27T05:58:04.583Z,53.50
2023-04-27T05:58:54.855Z,56.07
2023-04-27T05:59:53.819Z,56.72
2023-04-27T06:00:53.835Z,55.27
2023-04-27T06:01:53.813Z,56.56
2023-04-27T06:02:53.857Z,56.07
2023-04-27T06:03:53.934Z,55.75
2023-04-27T06:04:53.808Z,54.46
2023-04-27T06:05:53.783Z,53.66
2023-04-27T06:06:53.778Z,53.50
2023-04-27T06:07:53.796Z,49.63
2023-04-27T06:08:53.780Z,54.46
2023-04-27T06:09:53.753Z,56.56
2023-04-27T06:10:53.719Z,53.33
2023-04-27T06:11:53.708Z,53.66
2023-04-27T06:12:53.706Z,54.46
2023-04-27T06:13:53.705Z,56.56
2023-04-27T06:14:53.676Z,54.79
2023-04-27T06:15:53.742Z,55.43
2023-04-27T06:16:53.653Z,54.30
2023-04-27T06:17:53.705Z,55.59
2023-04-27T06:18:53.680Z,54.79
2023-04-27T06:19:53.634Z,57.36
2023-04-27T06:20:53.624Z,54.95
2023-04-27T06:21:53.608Z,54.79
2023-04-27T06:22:53.645Z,55.27
2023-04-27T06:23:53.600Z,53.98
2023-04-27T06:24:53.581Z,52.85
2023-04-27T06:25:53.551Z,52.53
2023-04-27T06:26:53.563Z,53.66
2023-04-27T06:27:53.555Z,54.46
2023-04-27T06:28:53.562Z,52.85
2023-04-27T06:29:53.534Z,52.53
2023-04-27T06:30:53.526Z,53.17
2023-04-27T06:31:53.551Z,53.17
2023-04-27T06:32:53.559Z,55.59
2023-04-27T06:33:53.506Z,53.50
2023-04-27T06:34:53.490Z,54.46
2023-04-27T06:35:53.514Z,52.21
2023-04-27T06:36:53.483Z,53.01
2023-04-27T06:37:53.470Z,52.37
2023-04-27T06:38:53.441Z,54.14
2023-04-27T06:39:53.455Z,54.95
2023-04-27T06:40:53.450Z,52.53
2023-04-27T06:41:53.406Z,54.46
2023-04-27T06:42:53.431Z,54.30
2023-04-27T06:43:53.395Z,53.98
2023-04-27T06:44:53.390Z,55.27
2023-04-27T06:45:53.536Z,56.72
2023-04-27T06:46:53.377Z,56.07
2023-04-27T06:47:53.421Z,58.33
2023-04-27T06:48:53.349Z,56.24
2023-04-27T06:49:53.347Z,54.79
2023-04-27T06:50:53.353Z,54.46
2023-04-27T06:51:53.335Z,55.75
2023-04-27T06:52:53.419Z,55.43
2023-04-27T06:53:53.294Z,55.75
2023-04-27T06:54:53.301Z,57.69
2023-04-27T06:55:53.290Z,56.07
2023-04-27T06:56:53.285Z,54.95
2023-04-27T06:57:53.293Z,56.24
2023-04-27T06:58:53.269Z,55.11
2023-04-27T06:59:53.242Z,58.17
2023-04-27T07:00:53.242Z,56.88
2023-04-27T07:01:53.309Z,55.27
2023-04-27T07:02:53.309Z,56.56
2023-04-27T07:03:53.338Z,55.11
2023-04-27T07:04:53.221Z,54.30
2023-04-27T07:05:53.217Z,55.11
2023-04-27T07:06:53.193Z,56.24
2023-04-27T07:07:53.178Z,54.95
2023-04-27T07:08:53.179Z,54.30
2023-04-27T07:09:53.160Z,52.53
2023-04-27T07:10:53.441Z,56.07
2023-04-27T07:11:53.133Z,54.46
2023-04-27T07:12:53.162Z,55.27
2023-04-27T07:13:53.117Z,51.88
2023-04-27T07:14:53.111Z,51.24
2023-04-27T07:15:53.125Z,55.91
2023-04-27T07:16:53.085Z,52.53
2023-04-27T07:17:53.100Z,55.11
2023-04-27T07:18:53.152Z,57.52
2023-04-27T07:19:53.050Z,53.17
2023-04-27T07:20:53.055Z,49.31
2023-04-27T07:21:53.037Z,52.53
2023-04-27T07:22:53.049Z,49.95
2023-04-27T07:23:54.438Z,53.98
2023-04-27T07:24:53.048Z,52.85
2023-04-27T07:25:53.038Z,55.27
2023-04-27T07:26:52.995Z,53.50
2023-04-27T07:27:52.977Z,53.17
2023-04-27T07:28:52.966Z,53.66
2023-04-27T07:29:52.959Z,57.04
2023-04-27T07:30:52.974Z,55.11
2023-04-27T07:31:53.076Z,53.66
2023-04-27T07:32:53.003Z,56.07
2023-04-27T07:33:52.933Z,54.95
2023-04-27T07:34:54.315Z,52.53
2023-04-27T07:35:54.061Z,51.72
2023-04-27T07:36:52.919Z,52.37
2023-04-27T07:37:52.881Z,50.92
2023-04-27T07:38:52.887Z,49.15
2023-04-27T07:39:52.865Z,51.40
2023-04-27T07:40:52.854Z,54.95
2023-04-27T07:41:52.927Z,51.40
2023-04-27T07:42:52.842Z,54.14
2023-04-27T07:43:52.824Z,50.76
2023-04-27T07:44:52.923Z,51.88
2023-04-27T07:45:52.825Z,52.53
2023-04-27T07:46:52.798Z,54.46
2023-04-27T07:47:52.790Z,52.85
2023-04-27T07:48:52.798Z,53.33
2023-04-27T07:49:52.759Z,52.53
2023-04-27T07:50:52.751Z,51.40
2023-04-27T07:51:52.743Z,54.14
2023-04-27T07:52:53.765Z,53.50
2023-04-27T07:53:52.766Z,53.01
2023-04-27T07:54:52.742Z,52.21
2023-04-27T07:55:52.731Z,52.53
2023-04-27T07:56:52.706Z,54.95
2023-04-27T07:57:52.704Z,54.46
2023-04-27T07:58:52.687Z,52.53
2023-04-27T07:59:52.714Z,50.76
2023-04-27T08:00:52.658Z,50.92
2023-04-27T08:01:54.359Z,51.08
2023-04-27T08:02:52.925Z,53.66
2023-04-27T08:03:52.853Z,52.53
2023-04-27T08:04:52.834Z,51.24
2023-04-27T08:05:52.974Z,48.34
2023-04-27T08:06:53.190Z,52.69
2023-04-27T08:07:53.138Z,53.33
2023-04-27T08:08:52.577Z,53.17
2023-04-27T08:09:52.612Z,51.72
2023-04-27T08:10:52.571Z,50.92
2023-04-27T08:11:52.565Z,53.82
2023-04-27T08:12:52.545Z,52.85
2023-04-27T08:13:52.579Z,52.05
2023-04-27T08:14:52.513Z,49.63
2023-04-27T08:15:52.583Z,54.95
2023-04-27T08:16:52.544Z,52.69
2023-04-27T08:17:52.575Z,51.56
2023-04-27T08:18:52.507Z,54.30
2023-04-27T08:19:52.493Z,52.53
2023-04-27T08:20:52.462Z,54.30
2023-04-27T08:21:52.480Z,54.46
2023-04-27T08:22:52.455Z,53.33
2023-04-27T08:23:52.445Z,52.21
2023-04-27T08:24:52.438Z,52.85
2023-04-27T08:25:52.423Z,54.79
2023-04-27T08:26:52.427Z,56.24
2023-04-27T08:27:52.409Z,55.59
2023-04-27T08:28:52.388Z,54.46
2023-04-27T08:29:52.402Z,55.43
2023-04-27T08:30:53.490Z,54.14
2023-04-27T08:31:54.361Z,57.04
2023-04-27T08:32:52.422Z,57.20
2023-04-27T08:33:52.344Z,57.85
2023-04-27T08:34:52.341Z,50.76
2023-04-27T08:35:52.353Z,52.53
2023-04-27T08:36:52.323Z,50.76
2023-04-27T08:37:52.306Z,50.27
2023-04-27T08:38:52.299Z,53.01
2023-04-27T08:39:52.417Z,49.79
2023-04-27T08:40:52.283Z,51.56
2023-04-27T08:41:52.284Z,53.50
2023-04-27T08:42:52.254Z,52.21
2023-04-27T08:43:52.315Z,51.40
2023-04-27T08:44:52.229Z,52.85
2023-04-27T08:45:52.287Z,51.40
2023-04-27T08:46:52.288Z,52.05
2023-04-27T08:47:52.222Z,51.88
2023-04-27T08:48:52.193Z,51.40
2023-04-27T08:49:52.190Z,52.85
2023-04-27T08:50:52.190Z,57.20
2023-04-27T08:51:52.163Z,52.85
2023-04-27T08:52:52.186Z,53.50
2023-04-27T08:53:52.153Z,57.69
2023-04-27T08:54:52.143Z,55.43
2023-04-27T08:55:52.194Z,56.56
2023-04-27T08:56:52.141Z,50.76
2023-04-27T08:57:52.103Z,52.37
2023-04-27T08:58:52.179Z,52.05
2023-04-27T08:59:52.096Z,51.24
2023-04-27T09:00:52.678Z,51.72
2023-04-27T09:01:53.269Z,50.27
2023-04-27T09:02:52.158Z,52.21
2023-04-27T09:03:52.162Z,52.05
2023-04-27T09:04:52.142Z,52.37
2023-04-27T09:06:03.711Z,50.60
2023-04-27T09:06:54.046Z,49.63
2023-04-27T09:07:52.023Z,52.85
2023-04-27T09:08:52.002Z,48.66
2023-04-27T09:09:51.991Z,53.98
2023-04-27T09:10:51.977Z,51.72
2023-04-27T09:11:51.966Z,52.37
2023-04-27T09:12:52.064Z,52.69
2023-04-27T09:13:51.966Z,49.63
2023-04-27T09:14:51.934Z,49.95
2023-04-27T09:15:51.963Z,53.33
2023-04-27T09:16:52.000Z,49.95
2023-04-27T09:17:51.932Z,48.34
2023-04-27T09:18:51.924Z,52.37
2023-04-27T09:19:51.895Z,51.88
2023-04-27T09:20:51.946Z,55.11
2023-04-27T09:21:51.897Z,54.95
2023-04-27T09:22:51.881Z,52.53
2023-04-27T09:23:51.862Z,52.21
2023-04-27T09:24:51.864Z,51.72
2023-04-27T09:25:51.860Z,51.88
2023-04-27T09:26:51.816Z,52.21
2023-04-27T09:27:51.830Z,52.05
2023-04-27T09:28:51.816Z,51.40
2023-04-27T09:29:52.795Z,51.24
2023-04-27T09:30:51.814Z,51.08
2023-04-27T09:31:51.843Z,49.31
2023-04-27T09:32:51.788Z,51.72
2023-04-27T09:33:51.759Z,50.60
2023-04-27T09:34:51.770Z,50.60
2023-04-27T09:35:51.745Z,50.92
2023-04-27T09:36:51.823Z,50.76
2023-04-27T09:37:51.730Z,51.88
2023-04-27T09:38:51.717Z,49.95
2023-04-27T09:39:51.734Z,51.40
2023-04-27T09:40:51.696Z,50.27
2023-04-27T09:41:51.686Z,52.05
2023-04-27T09:42:51.682Z,49.47
2023-04-27T09:43:51.684Z,50.92
2023-04-27T09:44:51.646Z,50.92
2023-04-27T09:45:51.697Z,53.33
2023-04-27T09:46:51.672Z,52.69
2023-04-27T09:47:51.678Z,53.33
2023-04-27T09:48:51.642Z,51.88
2023-04-27T09:49:51.601Z,50.27
2023-04-27T09:50:51.599Z,51.24
2023-04-27T09:51:51.628Z,51.72
2023-04-27T09:52:51.604Z,50.76
2023-04-27T09:53:51.590Z,51.56
2023-04-27T09:54:51.561Z,52.37
2023-04-27T09:55:51.728Z,50.11
2023-04-27T09:56:52.564Z,50.27
2023-04-27T09:57:51.540Z,50.60
2023-04-27T09:58:51.520Z,49.31
2023-04-27T09:59:51.517Z,52.05
2023-04-27T10:00:51.524Z,52.05
2023-04-27T10:01:51.542Z,50.76
2023-04-27T10:02:53.661Z,51.24
2023-04-27T10:03:52.570Z,50.43
2023-04-27T10:04:51.486Z,50.27
2023-04-27T10:05:51.489Z,51.40
2023-04-27T10:06:51.441Z,51.88
2023-04-27T10:07:51.421Z,50.76
2023-04-27T10:08:51.408Z,49.31
2023-04-27T10:09:51.450Z,51.88
2023-04-27T10:10:51.395Z,50.60
2023-04-27T10:11:51.387Z,48.98
2023-04-27T10:12:51.408Z,49.31
2023-04-27T10:13:52.330Z,50.92
2023-04-27T10:14:51.360Z,47.86
2023-04-27T10:15:51.445Z,51.56
2023-04-27T10:16:51.379Z,50.76
2023-04-27T10:17:51.371Z,49.63
2023-04-27T10:18:51.320Z,50.92
2023-04-27T10:19:53.801Z,51.40
2023-04-27T10:20:51.331Z,52.05
2023-04-27T10:21:51.298Z,52.53
2023-04-27T10:22:51.394Z,52.85
2023-04-27T10:23:51.316Z,52.53
2023-04-27T10:24:51.260Z,51.88
2023-04-27T10:25:51.284Z,51.88
2023-04-27T10:26:51.243Z,51.40
2023-04-27T10:27:51.239Z,51.72
2023-04-27T10:28:51.229Z,50.60
2023-04-27T10:29:51.221Z,52.53
2023-04-27T10:30:51.254Z,49.47
2023-04-27T10:31:51.212Z,50.27
2023-04-27T10:32:51.316Z,51.40
2023-04-27T10:33:51.174Z,52.37
2023-04-27T10:34:51.178Z,53.50
2023-04-27T10:35:51.161Z,54.95
2023-04-27T10:36:51.148Z,51.24
2023-04-27T10:37:51.155Z,50.76
2023-04-27T10:38:51.180Z,51.24
2023-04-27T10:39:52.239Z,52.37
2023-04-27T10:40:51.107Z,52.85
2023-04-27T10:41:51.132Z,51.88
2023-04-27T10:42:51.107Z,50.92
2023-04-27T10:43:51.089Z,51.40
2023-04-27T10:44:51.136Z,53.50
2023-04-27T10:45:51.103Z,57.52
2023-04-27T10:46:51.081Z,51.88
2023-04-27T10:47:51.106Z,52.53
2023-04-27T10:48:51.033Z,53.82
2023-04-27T10:49:51.027Z,51.88
2023-04-27T10:50:51.047Z,54.46
2023-04-27T10:51:51.011Z,52.21
2023-04-27T10:52:51.057Z,52.21
2023-04-27T10:53:51.062Z,54.95
2023-04-27T10:54:50.994Z,53.66
2023-04-27T10:55:50.979Z,52.53
2023-04-27T10:56:50.951Z,54.95
2023-04-27T10:57:51.058Z,53.50
2023-04-27T10:58:50.956Z,52.53
2023-04-27T10:59:50.953Z,52.21
2023-04-27T11:00:50.920Z,54.14
2023-04-27T11:01:50.941Z,54.62
2023-04-27T11:02:50.932Z,54.46
2023-04-27T11:03:50.982Z,54.79
2023-04-27T11:04:50.987Z,54.62
2023-04-27T11:05:50.942Z,52.69
2023-04-27T11:06:50.871Z,52.53
2023-04-27T11:07:50.852Z,55.27
2023-04-27T11:08:50.866Z,53.98
2023-04-27T11:09:50.820Z,49.79
2023-04-27T11:10:50.844Z,53.82
2023-04-27T11:11:50.830Z,53.82
2023-04-27T11:12:50.831Z,55.11
2023-04-27T11:13:50.835Z,52.85
2023-04-27T11:14:50.779Z,55.75
2023-04-27T11:15:50.855Z,54.30
2023-04-27T11:16:50.775Z,52.53
2023-04-27T11:17:50.787Z,52.53
2023-04-27T11:18:50.761Z,53.01
2023-04-27T11:19:50.728Z,54.14
2023-04-27T11:20:50.716Z,53.66
2023-04-27T11:21:50.740Z,52.05
2023-04-27T11:22:50.693Z,52.53
2023-04-27T11:23:50.710Z,53.82
2023-04-27T11:24:50.698Z,53.66
2023-04-27T11:25:50.664Z,53.50
2023-04-27T11:26:50.694Z,52.21
2023-04-27T11:27:50.646Z,52.85
2023-04-27T11:28:50.641Z,52.69
2023-04-27T11:29:50.717Z,52.21
2023-04-27T11:30:50.629Z,51.08
2023-04-27T11:31:50.645Z,53.33
2023-04-27T11:32:50.623Z,50.43
2023-04-27T11:33:50.612Z,52.85
2023-04-27T11:34:50.592Z,52.37
2023-04-27T11:35:50.593Z,49.15
2023-04-27T11:36:50.566Z,50.27
2023-04-27T11:37:50.553Z,49.95
2023-04-27T11:38:50.586Z,54.95
2023-04-27T11:39:50.557Z,54.95
2023-04-27T11:40:50.527Z,55.27
2023-04-27T11:41:50.498Z,56.56
2023-04-27T11:42:50.507Z,51.40
2023-04-27T11:43:50.492Z,50.76
2023-04-27T11:44:50.537Z,54.14
2023-04-27T11:45:50.487Z,51.72
2023-04-27T11:46:50.508Z,52.21
2023-04-27T11:47:50.488Z,49.63
2023-04-27T11:48:50.438Z,47.70
2023-04-27T11:49:50.496Z,48.02
2023-04-27T11:50:50.452Z,50.43
2023-04-27T11:51:50.446Z,51.72
2023-04-27T11:52:50.422Z,48.34
2023-04-27T11:53:50.388Z,50.76
2023-04-27T11:54:50.410Z,50.27
2023-04-27T11:55:50.410Z,52.37
2023-04-27T11:56:50.380Z,52.37
2023-04-27T11:57:50.376Z,49.95
2023-04-27T11:58:50.358Z,50.27
2023-04-27T11:59:50.372Z,49.31
2023-04-27T12:00:50.405Z,49.95
2023-04-27T12:01:50.377Z,52.37
2023-04-27T12:02:50.489Z,48.98
2023-04-27T12:03:50.518Z,53.50
2023-04-27T12:04:50.440Z,52.53
2023-04-27T12:05:50.384Z,52.53
2023-04-27T12:06:50.289Z,50.60
2023-04-27T12:07:50.281Z,47.05
2023-04-27T12:08:50.272Z,50.60
2023-04-27T12:09:50.269Z,47.37
2023-04-27T12:10:50.242Z,48.98
2023-04-27T12:11:50.294Z,48.98
2023-04-27T12:12:50.282Z,51.08
2023-04-27T12:13:50.206Z,51.40
2023-04-27T12:14:50.202Z,50.76
2023-04-27T12:15:50.187Z,53.01
2023-04-27T12:16:50.202Z,52.05
2023-04-27T12:17:50.262Z,51.08
2023-04-27T12:18:50.169Z,50.43
2023-04-27T12:19:50.216Z,49.79
2023-04-27T12:20:50.142Z,49.79
2023-04-27T12:21:50.154Z,52.53
2023-04-27T12:22:50.146Z,51.72
2023-04-27T12:23:50.141Z,50.11
2023-04-27T12:24:50.106Z,48.66
2023-04-27T12:25:50.137Z,50.92
2023-04-27T12:26:50.113Z,52.53
2023-04-27T12:27:50.092Z,49.47
2023-04-27T12:28:50.065Z,50.27
2023-04-27T12:29:50.073Z,48.02
2023-04-27T12:30:50.126Z,49.79
2023-04-27T12:31:50.055Z,51.56
2023-04-27T12:32:50.041Z,49.31
2023-04-27T12:33:50.033Z,45.76
2023-04-27T12:34:50.066Z,49.63
2023-04-27T12:35:50.002Z,50.60
2023-04-27T12:36:50.009Z,49.63
2023-04-27T12:37:50.004Z,47.86
2023-04-27T12:38:49.958Z,52.37
2023-04-27T12:39:49.997Z,52.69
2023-04-27T12:40:49.965Z,50.27
2023-04-27T12:41:49.952Z,50.27
2023-04-27T12:42:49.935Z,50.43
2023-04-27T12:43:49.935Z,49.79
2023-04-27T12:44:49.910Z,51.88
2023-04-27T12:45:50.008Z,49.47
2023-04-27T12:46:50.055Z,50.11
2023-04-27T12:48:01.118Z,49.15
2023-04-27T12:48:50.951Z,51.40
2023-04-27T12:49:49.875Z,53.01
2023-04-27T12:50:49.855Z,54.14
2023-04-27T12:51:49.846Z,53.01
2023-04-27T12:52:49.852Z,51.88